Temp: 9.3°C   Baro: 1005.9mb
  Wind: 2.0mph   Dir: SSW (192°)
  Rain: 0.2mm (0.0mm/hr)
  Sun: 0W/m2  Humidity: 93%

Historic data

Bath Spa Weather Station Historical Data
Daily Summary for October 20, 2022 Units:  Both    English   Metric
Daily Weekly Monthly Yearly Custom
  High: Low: Average:
Temperature: 63.1 °F /  17.3 °C 52.7 °F /  11.5 °C 58.5 °F /  14.7 °C
Dew Point: 58.1 °F /  14.5 °C 49.8 °F /  9.9 °C 54.8 °F /  12.7 °C
Humidity: 93.8% 74.6% 88%
Wind Speed: 6.2mph /  10km/h - 1.6mph /  2.6km/h
Wind Gust: 11mph /  17.7km/h - -
Wind- - SE
Pressure: 29.82 in /  1009.7 hPa 29.62 in /  1002.9 hPa -
Precipitation: 0.11 in /  2.79 mm    
Historical Graphs
 
 
Tabular Data for October 20, 2022
Time Temperature Dew Point Pressure Wind Wind Speed Wind Gust Humidity Rainfall Rate (Hourly) solar
00:09 58.8 °F /  14.9 °C 55.9 °F /  13.3 °C 29.81in /  1009.4hPa SE 2.8mph /  4.5km/h 9mph /  14.5km/h 90% 0.00in /  0mm 0 W/m2
00:14 58.8 °F /  14.9 °C 55.9 °F /  13.3 °C 29.81in /  1009.4hPa SE 1.1mph /  1.8km/h 4mph /  6.4km/h 90% 0.00in /  0mm 0 W/m2
00:19 58.8 °F /  14.9 °C 55.9 °F /  13.3 °C 29.82in /  1009.7hPa ESE 1.2mph /  1.9km/h 4mph /  6.4km/h 90% 0.00in /  0mm 0 W/m2
00:24 58.8 °F /  14.9 °C 55.9 °F /  13.3 °C 29.82in /  1009.7hPa ESE 0.4mph /  0.6km/h 4mph /  6.4km/h 90% 0.00in /  0mm 0 W/m2
00:29 59 °F /  15 °C 56.1 °F /  13.4 °C 29.81in /  1009.4hPa ESE 1.5mph /  2.4km/h 3mph /  4.8km/h 90% 0.00in /  0mm 0 W/m2
00:34 59 °F /  15 °C 56.2 °F /  13.4 °C 29.81in /  1009.4hPa ESE 1.2mph /  1.9km/h 3mph /  4.8km/h 90.4% 0.00in /  0mm 0 W/m2
00:39 59.2 °F /  15.1 °C 56.5 °F /  13.6 °C 29.81in /  1009.4hPa ESE 3.4mph /  5.5km/h 8mph /  12.9km/h 91% 0.00in /  0mm 0 W/m2
00:44 59.2 °F /  15.1 °C 56.5 °F /  13.6 °C 29.80in /  1009hPa East 3.2mph /  5.1km/h 8mph /  12.9km/h 91% 0.00in /  0mm 0 W/m2
00:49 59.4 °F /  15.2 °C 56.7 °F /  13.7 °C 29.80in /  1009hPa ESE 2.1mph /  3.4km/h 6mph /  9.7km/h 91% 0.00in /  0mm 0 W/m2
00:54 59.4 °F /  15.2 °C 56.7 °F /  13.7 °C 29.80in /  1009hPa NNE 1.4mph /  2.3km/h 4mph /  6.4km/h 91% 0.00in /  0mm 0 W/m2
00:59 59.4 °F /  15.2 °C 56.7 °F /  13.7 °C 29.80in /  1009hPa NE 0.6mph /  1km/h 4mph /  6.4km/h 91% 0.00in /  0mm 0 W/m2
01:04 59.4 °F /  15.2 °C 56.7 °F /  13.7 °C 29.80in /  1009hPa ENE 0.8mph /  1.3km/h 4mph /  6.4km/h 91% 0.00in /  0mm 0 W/m2
01:09 59.4 °F /  15.2 °C 56.7 °F /  13.7 °C 29.80in /  1009hPa ENE 0.9mph /  1.4km/h 3mph /  4.8km/h 91% 0.00in /  0mm 0 W/m2
01:14 59.5 °F /  15.3 °C 56.8 °F /  13.8 °C 29.80in /  1009hPa East 1.4mph /  2.3km/h 5mph /  8km/h 91% 0.00in /  0mm 0 W/m2
01:19 59.5 °F /  15.3 °C 56.8 °F /  13.8 °C 29.80in /  1009hPa East 0.2mph /  0.3km/h 5mph /  8km/h 91% 0.00in /  0mm 0 W/m2
01:24 59.5 °F /  15.3 °C 56.8 °F /  13.8 °C 29.80in /  1009hPa East 1.1mph /  1.8km/h 5mph /  8km/h 91% 0.00in /  0mm 0 W/m2
01:29 59.5 °F /  15.3 °C 56.8 °F /  13.8 °C 29.80in /  1009hPa East 2.9mph /  4.7km/h 7mph /  11.3km/h 91% 0.00in /  0mm 0 W/m2
01:34 59.7 °F /  15.4 °C 57 °F /  13.9 °C 29.79in /  1008.7hPa East 4.1mph /  6.6km/h 8mph /  12.9km/h 91% 0.00in /  0mm 0 W/m2
01:39 59.7 °F /  15.4 °C 57 °F /  13.9 °C 29.79in /  1008.7hPa East 3.7mph /  6km/h 7mph /  11.3km/h 91% 0.00in /  0mm 0 W/m2
01:44 59.9 °F /  15.5 °C 57.2 °F /  14 °C 29.79in /  1008.7hPa ESE 1.4mph /  2.3km/h 6mph /  9.7km/h 91% 0.00in /  0mm 0 W/m2
01:49 60 °F /  15.6 °C 57.5 °F /  14.2 °C 29.79in /  1008.7hPa East 5.6mph /  9km/h 11mph /  17.7km/h 91.6% 0.00in /  0mm 0 W/m2
01:54 60.1 °F /  15.6 °C 57.7 °F /  14.3 °C 29.79in /  1008.7hPa East 3.2mph /  5.1km/h 11mph /  17.7km/h 92% 0.00in /  0mm 0 W/m2
01:58 60.2 °F /  15.7 °C 57.8 °F /  14.3 °C 29.80in /  1009hPa SE 2.2mph /  3.5km/h 8mph /  12.9km/h 92% 0.00in /  0mm 0 W/m2
02:04 60.4 °F /  15.8 °C 58.1 °F /  14.5 °C 29.80in /  1009hPa SE 2.1mph /  3.4km/h 7mph /  11.3km/h 92% 0.00in /  0mm 0 W/m2
02:09 60.4 °F /  15.8 °C 58.1 °F /  14.5 °C 29.80in /  1009hPa East 1.7mph /  2.7km/h 5mph /  8km/h 92% 0.00in /  0mm 0 W/m2
02:14 60.4 °F /  15.8 °C 58.1 °F /  14.5 °C 29.80in /  1009hPa SE 1.2mph /  1.9km/h 6mph /  9.7km/h 92% 0.00in /  0mm 0 W/m2
02:19 60.4 °F /  15.8 °C 58.1 °F /  14.5 °C 29.79in /  1008.7hPa East 2.5mph /  4km/h 7mph /  11.3km/h 92% 0.00in /  0mm 0 W/m2
02:24 60.4 °F /  15.8 °C 58.1 °F /  14.5 °C 29.79in /  1008.7hPa ESE 2mph /  3.2km/h 4mph /  6.4km/h 92% 0.00in /  0mm 0 W/m2
02:29 60.4 °F /  15.8 °C 58.1 °F /  14.5 °C 29.79in /  1008.7hPa East 1.7mph /  2.7km/h 5mph /  8km/h 92% 0.00in /  0mm 0 W/m2
02:34 60.4 °F /  15.8 °C 58.1 °F /  14.5 °C 29.79in /  1008.7hPa ESE 1.9mph /  3.1km/h 4mph /  6.4km/h 92% 0.00in /  0mm 0 W/m2
02:39 60.4 °F /  15.8 °C 58.1 °F /  14.5 °C 29.79in /  1008.7hPa East 1.6mph /  2.6km/h 4mph /  6.4km/h 92% 0.00in /  0mm 0 W/m2
02:44 60.4 °F /  15.8 °C 58.1 °F /  14.5 °C 29.79in /  1008.7hPa East 2.2mph /  3.5km/h 4mph /  6.4km/h 92% 0.00in /  0mm 0 W/m2
02:49 60.4 °F /  15.8 °C 58.1 °F /  14.5 °C 29.79in /  1008.7hPa East 0.9mph /  1.4km/h 5mph /  8km/h 92% 0.00in /  0mm 0 W/m2
02:54 60.4 °F /  15.8 °C 58.1 °F /  14.5 °C 29.79in /  1008.7hPa East 1.4mph /  2.3km/h 5mph /  8km/h 92% 0.00in /  0mm 0 W/m2
02:59 60.4 °F /  15.8 °C 58.1 °F /  14.5 °C 29.79in /  1008.7hPa ESE 0.2mph /  0.3km/h 2mph /  3.2km/h 92% 0.00in /  0mm 0 W/m2
03:04 60.4 °F /  15.8 °C 58.1 °F /  14.5 °C 29.78in /  1008.4hPa East 0.5mph /  0.8km/h 2mph /  3.2km/h 92% 0.00in /  0mm 0 W/m2
03:09 60.4 °F /  15.8 °C 58.1 °F /  14.5 °C 29.79in /  1008.7hPa East 1.7mph /  2.7km/h 7mph /  11.3km/h 92% 0.00in /  0mm 0 W/m2
03:14 60.4 °F /  15.8 °C 58.1 °F /  14.5 °C 29.79in /  1008.7hPa Calm   3mph /  4.8km/h 92% 0.00in /  0mm 0 W/m2
03:19 60.4 °F /  15.8 °C 58.1 °F /  14.5 °C 29.79in /  1008.7hPa East 0.8mph /  1.3km/h 5mph /  8km/h 92% 0.00in /  0mm 0 W/m2
03:24 60.4 °F /  15.8 °C 58 °F /  14.4 °C 29.79in /  1008.7hPa East 1mph /  1.6km/h 4mph /  6.4km/h 92% 0.00in /  0mm 0 W/m2
03:28 60.3 °F /  15.7 °C 57.9 °F /  14.4 °C 29.79in /  1008.7hPa ESE 1.2mph /  1.9km/h 4mph /  6.4km/h 92% 0.00in /  0mm 0 W/m2
03:34 60.3 °F /  15.7 °C 57.9 °F /  14.4 °C 29.78in /  1008.4hPa NE 1.7mph /  2.7km/h 5mph /  8km/h 92% 0.00in /  0mm 0 W/m2
03:39 60.3 °F /  15.7 °C 57.9 °F /  14.4 °C 29.78in /  1008.4hPa ENE 1.7mph /  2.7km/h 6mph /  9.7km/h 92% 0.00in /  0mm 0 W/m2
03:44 60.3 °F /  15.7 °C 57.9 °F /  14.4 °C 29.78in /  1008.4hPa NE 0.9mph /  1.4km/h 4mph /  6.4km/h 92% 0.00in /  0mm 0 W/m2
03:49 60.1 °F /  15.6 °C 57.7 °F /  14.3 °C 29.78in /  1008.4hPa Calm   2mph /  3.2km/h 92% 0.00in /  0mm 0 W/m2
03:54 60.1 °F /  15.6 °C 57.7 °F /  14.3 °C 29.77in /  1008hPa NE 1mph /  1.6km/h 4mph /  6.4km/h 92% 0.00in /  0mm 0 W/m2
03:59 60.1 °F /  15.6 °C 57.7 °F /  14.3 °C 29.77in /  1008hPa NE 1mph /  1.6km/h 3mph /  4.8km/h 92% 0.00in /  0mm 0 W/m2
04:04 59.9 °F /  15.5 °C 57.6 °F /  14.2 °C 29.77in /  1008hPa East 1.7mph /  2.7km/h 5mph /  8km/h 92% 0.00in /  0mm 0 W/m2
04:09 59.9 °F /  15.5 °C 57.6 °F /  14.2 °C 29.78in /  1008.4hPa ESE 0.6mph /  1km/h 4mph /  6.4km/h 92% 0.00in /  0mm 0 W/m2
04:14 59.8 °F /  15.4 °C 57.5 °F /  14.2 °C 29.77in /  1008hPa ESE 1.3mph /  2.1km/h 4mph /  6.4km/h 92% 0.00in /  0mm 0 W/m2
04:19 59.7 °F /  15.4 °C 57.4 °F /  14.1 °C 29.77in /  1008hPa ESE 2.1mph /  3.4km/h 4mph /  6.4km/h 92% 0.00in /  0mm 0 W/m2
04:24 59.7 °F /  15.4 °C 57.6 °F /  14.2 °C 29.77in /  1008hPa South 2.5mph /  4km/h 4mph /  6.4km/h 92.8% 0.00in /  0mm 0 W/m2
04:29 59.7 °F /  15.4 °C 57.6 °F /  14.2 °C 29.77in /  1008hPa SSE 2mph /  3.2km/h 7mph /  11.3km/h 92.6% 0.00in /  0mm 0 W/m2
04:34 59.6 °F /  15.3 °C 57.5 °F /  14.2 °C 29.77in /  1008hPa SSE 0.4mph /  0.6km/h 2mph /  3.2km/h 92.6% 0.00in /  0mm 0 W/m2
04:39 59.5 °F /  15.3 °C 57.3 °F /  14.1 °C 29.77in /  1008hPa SSE 1.2mph /  1.9km/h 3mph /  4.8km/h 92.3% 0.00in /  0mm 0 W/m2
04:44 59.4 °F /  15.2 °C 57.1 °F /  13.9 °C 29.77in /  1008hPa SSE 0.9mph /  1.4km/h 2mph /  3.2km/h 92.2% 0.00in /  0mm 0 W/m2
04:49 59.4 °F /  15.2 °C 57 °F /  13.9 °C 29.78in /  1008.4hPa SSE 0.2mph /  0.3km/h 2mph /  3.2km/h 92% 0.00in /  0mm 0 W/m2
04:54 59.4 °F /  15.2 °C 57 °F /  13.9 °C 29.78in /  1008.4hPa SSE 0.2mph /  0.3km/h 2mph /  3.2km/h 92% 0.00in /  0mm 0 W/m2
04:59 59.2 °F /  15.1 °C 56.8 °F /  13.8 °C 29.78in /  1008.4hPa SSE 0.2mph /  0.3km/h 2mph /  3.2km/h 92% 0.00in /  0mm 0 W/m2
05:04 59.2 °F /  15.1 °C 56.8 °F /  13.8 °C 29.78in /  1008.4hPa SSE 1.6mph /  2.6km/h 2mph /  3.2km/h 92% 0.00in /  0mm 0 W/m2
05:09 59 °F /  15 °C 56.7 °F /  13.7 °C 29.77in /  1008hPa SSE 1.1mph /  1.8km/h 2mph /  3.2km/h 92% 0.00in /  0mm 0 W/m2
05:14 58.8 °F /  14.9 °C 56.6 °F /  13.7 °C 29.77in /  1008hPa SSE 2.2mph /  3.5km/h 3mph /  4.8km/h 92.4% 0.00in /  0mm 0 W/m2
05:19 58.8 °F /  14.9 °C 56.8 °F /  13.8 °C 29.77in /  1008hPa SSE 1.5mph /  2.4km/h 3mph /  4.8km/h 93% 0.00in /  0mm 0 W/m2
05:24 58.8 °F /  14.9 °C 56.8 °F /  13.8 °C 29.77in /  1008hPa SSE 1.3mph /  2.1km/h 3mph /  4.8km/h 93% 0.00in /  0mm 0 W/m2
05:29 58.7 °F /  14.8 °C 56.8 °F /  13.8 °C 29.77in /  1008hPa SSE 1.7mph /  2.7km/h 3mph /  4.8km/h 93% 0.00in /  0mm 0 W/m2
05:34 58.6 °F /  14.8 °C 56.6 °F /  13.7 °C 29.77in /  1008hPa SSE 0.6mph /  1km/h 3mph /  4.8km/h 92.6% 0.00in /  0mm 0 W/m2
05:39 58.6 °F /  14.8 °C 56.3 °F /  13.5 °C 29.77in /  1008hPa Calm   1mph /  1.6km/h 92% 0.01in /  0.25mm 0 W/m2
05:44 58.6 °F /  14.8 °C 56.5 °F /  13.6 °C 29.77in /  1008hPa Calm     92.4% 0.01in /  0.25mm 0 W/m2
05:49 58.6 °F /  14.8 °C 56.6 °F /  13.7 °C 29.77in /  1008hPa SSE 0.4mph /  0.6km/h 3mph /  4.8km/h 92.8% 0.01in /  0.25mm 0 W/m2
05:54 58.6 °F /  14.8 °C 56.7 °F /  13.7 °C 29.78in /  1008.4hPa SSE 0.6mph /  1km/h 2mph /  3.2km/h 93% 0.01in /  0.25mm 0 W/m2
05:59 58.6 °F /  14.8 °C 56.7 °F /  13.7 °C 29.78in /  1008.4hPa Calm   1mph /  1.6km/h 93% 0.01in /  0.25mm 0 W/m2
06:04 58.5 °F /  14.7 °C 56.6 °F /  13.7 °C 29.78in /  1008.4hPa SSE 0.4mph /  0.6km/h 3mph /  4.8km/h 93% 0.01in /  0.25mm 0 W/m2
06:09 58.5 °F /  14.7 °C 56.5 °F /  13.6 °C 29.78in /  1008.4hPa SSE 0.4mph /  0.6km/h 3mph /  4.8km/h 93% 0.01in /  0.25mm 0 W/m2
06:14 58.3 °F /  14.6 °C 56.3 °F /  13.5 °C 29.78in /  1008.4hPa South 1.3mph /  2.1km/h 3mph /  4.8km/h 93% 0.01in /  0.25mm 0 W/m2
06:19 58.3 °F /  14.6 °C 56.3 °F /  13.5 °C 29.78in /  1008.4hPa South 1.3mph /  2.1km/h 3mph /  4.8km/h 93% 0.02in /  0.51mm 0 W/m2
06:24 58.2 °F /  14.6 °C 56.2 °F /  13.4 °C 29.78in /  1008.4hPa South 2.7mph /  4.3km/h 3mph /  4.8km/h 93% 0.02in /  0.51mm 0 W/m2
06:29 58.1 °F /  14.5 °C 56.1 °F /  13.4 °C 29.78in /  1008.4hPa South 2mph /  3.2km/h 5mph /  8km/h 93% 0.02in /  0.51mm 0 W/m2
06:34 57.9 °F /  14.4 °C 55.9 °F /  13.3 °C 29.78in /  1008.4hPa South 3.3mph /  5.3km/h 6mph /  9.7km/h 93% 0.02in /  0.51mm 0 W/m2
06:39 57.8 °F /  14.3 °C 55.9 °F /  13.3 °C 29.78in /  1008.4hPa South 1.2mph /  1.9km/h 6mph /  9.7km/h 93% 0.02in /  0.51mm 0 W/m2
06:44 57.7 °F /  14.3 °C 55.8 °F /  13.2 °C 29.78in /  1008.4hPa SSE 2.4mph /  3.9km/h 5mph /  8km/h 93% 0.02in /  0.51mm 0 W/m2
06:49 57.6 °F /  14.2 °C 55.6 °F /  13.1 °C 29.78in /  1008.4hPa SSW 3mph /  4.8km/h 8mph /  12.9km/h 93% 0.02in /  0.51mm 0 W/m2
06:54 57.6 °F /  14.2 °C 55.6 °F /  13.1 °C 29.78in /  1008.4hPa South 2.8mph /  4.5km/h 7mph /  11.3km/h 93% 0.02in /  0.51mm 0 W/m2
06:59 57.6 °F /  14.2 °C 55.6 °F /  13.1 °C 29.78in /  1008.4hPa South 1.4mph /  2.3km/h 4mph /  6.4km/h 93% 0.02in /  0.51mm 0 W/m2
07:04 57.5 °F /  14.2 °C 55.5 °F /  13.1 °C 29.78in /  1008.4hPa South 2.4mph /  3.9km/h 4mph /  6.4km/h 93% 0.03in /  0.76mm 0 W/m2
07:09 57.4 °F /  14.1 °C 55.4 °F /  13 °C 29.78in /  1008.4hPa SSE 0.6mph /  1km/h 4mph /  6.4km/h 93% 0.04in /  1.02mm 0 W/m2
07:14 57.3 °F /  14.1 °C 55.3 °F /  12.9 °C 29.77in /  1008hPa SSE 0.9mph /  1.4km/h 4mph /  6.4km/h 92.8% 0.05in /  1.27mm 0 W/m2
07:19 57 °F /  13.9 °C 54.7 °F /  12.6 °C 29.77in /  1008hPa South 0.6mph /  1km/h 4mph /  6.4km/h 92% 0.05in /  1.27mm 0 W/m2
07:24 56.8 °F /  13.8 °C 54.5 °F /  12.5 °C 29.77in /  1008hPa South 1.1mph /  1.8km/h 3mph /  4.8km/h 92% 0.05in /  1.27mm 0 W/m2
07:29 56.8 °F /  13.8 °C 54.5 °F /  12.5 °C 29.76in /  1007.7hPa South 1.6mph /  2.6km/h 2mph /  3.2km/h 92% 0.05in /  1.27mm 0 W/m2
07:34 56.8 °F /  13.8 °C 54.5 °F /  12.5 °C 29.76in /  1007.7hPa South 1mph /  1.6km/h 2mph /  3.2km/h 92% 0.05in /  1.27mm 0 W/m2
07:39 56.7 °F /  13.7 °C 54.3 °F /  12.4 °C 29.76in /  1007.7hPa South 1mph /  1.6km/h 2mph /  3.2km/h 92% 0.05in /  1.27mm 0 W/m2
07:44 56.5 °F /  13.6 °C 54.1 °F /  12.3 °C 29.76in /  1007.7hPa South 2.2mph /  3.5km/h 3mph /  4.8km/h 92% 0.05in /  1.27mm 0 W/m2
07:49 56.5 °F /  13.6 °C 54.1 °F /  12.3 °C 29.76in /  1007.7hPa SE 2.2mph /  3.5km/h 4mph /  6.4km/h 92% 0.05in /  1.27mm 0 W/m2
07:54 56.3 °F /  13.5 °C 54 °F /  12.2 °C 29.76in /  1007.7hPa ESE 1.4mph /  2.3km/h 3mph /  4.8km/h 92% 0.05in /  1.27mm 0 W/m2
07:59 56.2 °F /  13.4 °C 53.9 °F /  12.2 °C 29.76in /  1007.7hPa ESE 0.7mph /  1.1km/h 2mph /  3.2km/h 92% 0.04in /  1.02mm 0 W/m2
08:04 56.1 °F /  13.4 °C 53.8 °F /  12.1 °C 29.76in /  1007.7hPa East 0.4mph /  0.6km/h 2mph /  3.2km/h 92% 0.04in /  1.02mm 0 W/m2
08:09 56.1 °F /  13.4 °C 53.8 °F /  12.1 °C 29.76in /  1007.7hPa East 1.3mph /  2.1km/h 2mph /  3.2km/h 92% 0.03in /  0.76mm 0 W/m2
08:14 56.1 °F /  13.4 °C 53.9 °F /  12.2 °C 29.76in /  1007.7hPa East 0.6mph /  1km/h 3mph /  4.8km/h 92.4% 0.02in /  0.51mm 0 W/m2
08:19 56.1 °F /  13.4 °C 54 °F /  12.2 °C 29.76in /  1007.7hPa Calm   3mph /  4.8km/h 92.8% 0.02in /  0.51mm 0 W/m2
08:24 56.1 °F /  13.4 °C 54.1 °F /  12.3 °C 29.76in /  1007.7hPa Calm     93% 0.02in /  0.51mm 5 W/m2
08:29 56.1 °F /  13.4 °C 54.1 °F /  12.3 °C 29.76in /  1007.7hPa Calm     93% 0.02in /  0.51mm 5 W/m2
08:34 56.1 °F /  13.4 °C 54.1 °F /  12.3 °C 29.75in /  1007.3hPa Calm     93% 0.02in /  0.51mm 5 W/m2
08:39 56.1 °F /  13.4 °C 54.1 °F /  12.3 °C 29.75in /  1007.3hPa Calm     93% 0.02in /  0.51mm 9 W/m2
08:44 56 °F /  13.3 °C 54.1 °F /  12.3 °C 29.75in /  1007.3hPa Calm     93% 0.02in /  0.51mm 11 W/m2
08:49 56 °F /  13.3 °C 54 °F /  12.2 °C 29.75in /  1007.3hPa Calm     93% 0.02in /  0.51mm 12 W/m2
08:54 55.9 °F /  13.3 °C 54 °F /  12.2 °C 29.75in /  1007.3hPa Calm     93% 0.03in /  0.76mm 18 W/m2
08:59 55.9 °F /  13.3 °C 54 °F /  12.2 °C 29.75in /  1007.3hPa Calm     93% 0.03in /  0.76mm 25 W/m2
09:04 55.9 °F /  13.3 °C 54 °F /  12.2 °C 29.75in /  1007.3hPa Calm     93% 0.04in /  1.02mm 35 W/m2
09:09 55.9 °F /  13.3 °C 54 °F /  12.2 °C 29.75in /  1007.3hPa Calm     93% 0.04in /  1.02mm 46 W/m2
09:14 56 °F /  13.3 °C 54.1 °F /  12.3 °C 29.74in /  1007hPa Calm     93% 0.04in /  1.02mm 49 W/m2
09:19 56.1 °F /  13.4 °C 54.1 °F /  12.3 °C 29.74in /  1007hPa Calm     93% 0.03in /  0.76mm 53 W/m2
09:24 56.1 °F /  13.4 °C 54.1 °F /  12.3 °C 29.74in /  1007hPa Calm     93% 0.03in /  0.76mm 74 W/m2
09:29 56.1 °F /  13.4 °C 54.1 °F /  12.3 °C 29.74in /  1007hPa Calm     93% 0.03in /  0.76mm 84 W/m2
09:34 56.2 °F /  13.4 °C 54.2 °F /  12.3 °C 29.74in /  1007hPa Calm     93% 0.02in /  0.51mm 90 W/m2
09:39 56.4 °F /  13.6 °C 54.4 °F /  12.4 °C 29.74in /  1007hPa Calm     93% 0.02in /  0.51mm 81 W/m2
09:44 56.5 °F /  13.6 °C 54.5 °F /  12.5 °C 29.74in /  1007hPa Calm     93% 0.02in /  0.51mm 62 W/m2
09:49 56.4 °F /  13.6 °C 54.4 °F /  12.4 °C 29.74in /  1007hPa Calm     93% 0.02in /  0.51mm 65 W/m2
09:54 56.5 °F /  13.6 °C 54.5 °F /  12.5 °C 29.74in /  1007hPa Calm     93% 0.01in /  0.25mm 65 W/m2
09:59 56.7 °F /  13.7 °C 54.7 °F /  12.6 °C 29.74in /  1007hPa Calm     93% 0.01in /  0.25mm 62 W/m2
10:04 56.7 °F /  13.7 °C 54.7 °F /  12.6 °C 29.74in /  1007hPa Calm     93% 0.00in /  0mm 65 W/m2
10:09 56.7 °F /  13.7 °C 54.7 °F /  12.6 °C 29.74in /  1007hPa Calm     93% 0.00in /  0mm 79 W/m2
10:14 56.7 °F /  13.7 °C 54.7 °F /  12.6 °C 29.74in /  1007hPa Calm     93% 0.00in /  0mm 84 W/m2
10:19 56.7 °F /  13.7 °C 54.7 °F /  12.6 °C 29.74in /  1007hPa Calm     93% 0.00in /  0mm 86 W/m2
10:24 56.5 °F /  13.6 °C 54.5 °F /  12.5 °C 29.74in /  1007hPa Calm     93% 0.00in /  0mm 79 W/m2
10:29 56.5 °F /  13.6 °C 54.5 °F /  12.5 °C 29.74in /  1007hPa Calm     93% 0.00in /  0mm 81 W/m2
10:34 56.7 °F /  13.7 °C 54.7 °F /  12.6 °C 29.74in /  1007hPa Calm     93% 0.00in /  0mm 93 W/m2
10:39 56.8 °F /  13.8 °C 55.1 °F /  12.8 °C 29.73in /  1006.7hPa East 0.2mph /  0.3km/h 1mph /  1.6km/h 93.8% 0.00in /  0mm 114 W/m2
10:44 56.8 °F /  13.8 °C 54.9 °F /  12.7 °C 29.73in /  1006.7hPa East 1.3mph /  2.1km/h 3mph /  4.8km/h 93% 0.00in /  0mm 188 W/m2
10:49 57 °F /  13.9 °C 55 °F /  12.8 °C 29.73in /  1006.7hPa East 1.6mph /  2.6km/h 3mph /  4.8km/h 93% 0.00in /  0mm 213 W/m2
10:54 57 °F /  13.9 °C 55 °F /  12.8 °C 29.73in /  1006.7hPa East 0.6mph /  1km/h 3mph /  4.8km/h 93% 0.00in /  0mm 197 W/m2
10:59 57 °F /  13.9 °C 55 °F /  12.8 °C 29.73in /  1006.7hPa East 0.2mph /  0.3km/h 1mph /  1.6km/h 93% 0.00in /  0mm 151 W/m2
11:04 57 °F /  13.9 °C 55 °F /  12.8 °C 29.72in /  1006.3hPa Calm   1mph /  1.6km/h 93% 0.00in /  0mm 206 W/m2
11:09 57.4 °F /  14.1 °C 55.4 °F /  13 °C 29.72in /  1006.3hPa East 0.4mph /  0.6km/h 1mph /  1.6km/h 93% 0.00in /  0mm 246 W/m2
11:14 57.6 °F /  14.2 °C 55.7 °F /  13.2 °C 29.72in /  1006.3hPa East 0.2mph /  0.3km/h 2mph /  3.2km/h 93% 0.00in /  0mm 258 W/m2
11:19 57.7 °F /  14.3 °C 55.8 °F /  13.2 °C 29.72in /  1006.3hPa Calm   1mph /  1.6km/h 93% 0.00in /  0mm 232 W/m2
11:24 57.8 °F /  14.3 °C 55.8 °F /  13.2 °C 29.72in /  1006.3hPa Calm     93% 0.00in /  0mm 197 W/m2
11:29 58.1 °F /  14.5 °C 56.1 °F /  13.4 °C 29.72in /  1006.3hPa Calm   1mph /  1.6km/h 93% 0.00in /  0mm 179 W/m2
11:34 58.6 °F /  14.8 °C 56.5 °F /  13.6 °C 29.72in /  1006.3hPa Calm     92.6% 0.00in /  0mm 174 W/m2
11:39 58.5 °F /  14.7 °C 56.1 °F /  13.4 °C 29.72in /  1006.3hPa Calm   2mph /  3.2km/h 92% 0.00in /  0mm 174 W/m2
11:44 58.6 °F /  14.8 °C 56.3 °F /  13.5 °C 29.72in /  1006.3hPa Calm   1mph /  1.6km/h 92% 0.00in /  0mm 169 W/m2
11:49 58.8 °F /  14.9 °C 56.5 °F /  13.6 °C 29.72in /  1006.3hPa ESE 0.2mph /  0.3km/h 2mph /  3.2km/h 92% 0.00in /  0mm 186 W/m2
11:54 58.8 °F /  14.9 °C 56.4 °F /  13.6 °C 29.72in /  1006.3hPa South 2.4mph /  3.9km/h 5mph /  8km/h 91.6% 0.00in /  0mm 202 W/m2
11:59 59.2 °F /  15.1 °C 56.5 °F /  13.6 °C 29.72in /  1006.3hPa SSW 0.9mph /  1.4km/h 4mph /  6.4km/h 91% 0.00in /  0mm 214 W/m2
12:04 59.2 °F /  15.1 °C 56.5 °F /  13.6 °C 29.72in /  1006.3hPa SSW 1.2mph /  1.9km/h 4mph /  6.4km/h 91% 0.00in /  0mm 234 W/m2
12:09 59.3 °F /  15.2 °C 56.6 °F /  13.7 °C 29.72in /  1006.3hPa WSW 3.3mph /  5.3km/h 7mph /  11.3km/h 90.8% 0.00in /  0mm 290 W/m2
12:14 59.4 °F /  15.2 °C 56.4 °F /  13.6 °C 29.72in /  1006.3hPa WSW 4.8mph /  7.7km/h 9mph /  14.5km/h 89.8% 0.00in /  0mm 332 W/m2
12:19 59.4 °F /  15.2 °C 56.2 °F /  13.4 °C 29.72in /  1006.3hPa West 3.2mph /  5.1km/h 8mph /  12.9km/h 89% 0.00in /  0mm 345 W/m2
12:24 59.8 °F /  15.4 °C 56.2 °F /  13.4 °C 29.72in /  1006.3hPa WSW 1.3mph /  2.1km/h 5mph /  8km/h 88% 0.00in /  0mm 385 W/m2
12:29 60.3 °F /  15.7 °C 56.5 °F /  13.6 °C 29.72in /  1006.3hPa West 4.4mph /  7.1km/h 7mph /  11.3km/h 87.4% 0.00in /  0mm 362 W/m2
12:34 60.1 °F /  15.6 °C 56.1 °F /  13.4 °C 29.72in /  1006.3hPa WSW 3.9mph /  6.3km/h 7mph /  11.3km/h 87% 0.00in /  0mm 229 W/m2
12:39 60.1 °F /  15.6 °C 55.9 °F /  13.3 °C 29.72in /  1006.3hPa WSW 4.1mph /  6.6km/h 7mph /  11.3km/h 86% 0.00in /  0mm 169 W/m2
12:44 60.1 °F /  15.6 °C 55.9 °F /  13.3 °C 29.72in /  1006.3hPa WSW 2.9mph /  4.7km/h 7mph /  11.3km/h 86% 0.00in /  0mm 181 W/m2
12:49 60.3 °F /  15.7 °C 56 °F /  13.3 °C 29.72in /  1006.3hPa SW 2.9mph /  4.7km/h 6mph /  9.7km/h 85.8% 0.00in /  0mm 174 W/m2
12:54 60.3 °F /  15.7 °C 55.8 °F /  13.2 °C 29.71in /  1006hPa SW 2.7mph /  4.3km/h 5mph /  8km/h 85% 0.00in /  0mm 185 W/m2
12:59 60.4 °F /  15.8 °C 55.9 °F /  13.3 °C 29.71in /  1006hPa SW 2.1mph /  3.4km/h 4mph /  6.4km/h 85% 0.00in /  0mm 169 W/m2
13:04 60.4 °F /  15.8 °C 55.9 °F /  13.3 °C 29.71in /  1006hPa SW 2.2mph /  3.5km/h 4mph /  6.4km/h 85% 0.00in /  0mm 98 W/m2
13:09 60.3 °F /  15.7 °C 55.6 °F /  13.1 °C 29.71in /  1006hPa SW 5.8mph /  9.3km/h 11mph /  17.7km/h 84.6% 0.00in /  0mm 90 W/m2
13:14 60.1 °F /  15.6 °C 55.2 °F /  12.9 °C 29.71in /  1006hPa SW 4.8mph /  7.7km/h 11mph /  17.7km/h 84% 0.00in /  0mm 123 W/m2
13:19 59.9 °F /  15.5 °C 55 °F /  12.8 °C 29.71in /  1006hPa SW 4.8mph /  7.7km/h 10mph /  16.1km/h 84% 0.00in /  0mm 151 W/m2
13:24 59.8 °F /  15.4 °C 54.9 °F /  12.7 °C 29.71in /  1006hPa WSW 5.4mph /  8.7km/h 9mph /  14.5km/h 84% 0.00in /  0mm 172 W/m2
13:29 59.7 °F /  15.4 °C 55 °F /  12.8 °C 29.71in /  1006hPa WSW 3.3mph /  5.3km/h 10mph /  16.1km/h 84.2% 0.00in /  0mm 172 W/m2
13:34 59.5 °F /  15.3 °C 54.9 °F /  12.7 °C 29.71in /  1006hPa SW 4.7mph /  7.6km/h 11mph /  17.7km/h 84.8% 0.00in /  0mm 183 W/m2
13:39 59 °F /  15 °C 54.5 °F /  12.5 °C 29.71in /  1006hPa SW 4.2mph /  6.8km/h 8mph /  12.9km/h 85% 0.00in /  0mm 176 W/m2
13:44 58.6 °F /  14.8 °C 54.1 °F /  12.3 °C 29.71in /  1006hPa SW 2.5mph /  4km/h 6mph /  9.7km/h 85% 0.00in /  0mm 123 W/m2
13:49 58.7 °F /  14.8 °C 54.2 °F /  12.3 °C 29.71in /  1006hPa WSW 0.8mph /  1.3km/h 4mph /  6.4km/h 85% 0.00in /  0mm 156 W/m2
13:54 59.1 °F /  15.1 °C 54.6 °F /  12.6 °C 29.70in /  1005.6hPa SW 2.7mph /  4.3km/h 4mph /  6.4km/h 85% 0.00in /  0mm 185 W/m2
13:59 59.4 °F /  15.2 °C 54.9 °F /  12.7 °C 29.70in /  1005.6hPa WSW 1.2mph /  1.9km/h 4mph /  6.4km/h 85% 0.00in /  0mm 292 W/m2
14:04 59.7 °F /  15.4 °C 54.9 °F /  12.7 °C 29.70in /  1005.6hPa SW 2mph /  3.2km/h 5mph /  8km/h 84% 0.00in /  0mm 462 W/m2
14:09 60.6 °F /  15.9 °C 55.4 °F /  13 °C 29.70in /  1005.6hPa SW 3.3mph /  5.3km/h 7mph /  11.3km/h 83.2% 0.00in /  0mm 666 W/m2
14:14 61.9 °F /  16.6 °C 55.9 °F /  13.3 °C 29.70in /  1005.6hPa SW 3.6mph /  5.8km/h 7mph /  11.3km/h 81% 0.00in /  0mm 645 W/m2
14:19 62.5 °F /  16.9 °C 55.6 °F /  13.1 °C 29.70in /  1005.6hPa WSW 3mph /  4.8km/h 6mph /  9.7km/h 78.4% 0.00in /  0mm 561 W/m2
14:24 62.2 °F /  16.8 °C 54.6 °F /  12.6 °C 29.70in /  1005.6hPa SW 2.4mph /  3.9km/h 7mph /  11.3km/h 76.2% 0.00in /  0mm 304 W/m2
14:29 62.4 °F /  16.9 °C 54.4 °F /  12.4 °C 29.69in /  1005.3hPa SSW 2.8mph /  4.5km/h 6mph /  9.7km/h 75.4% 0.00in /  0mm 438 W/m2
14:34 62.6 °F /  17 °C 54.8 °F /  12.7 °C 29.69in /  1005.3hPa SW 3.1mph /  5km/h 7mph /  11.3km/h 75.6% 0.00in /  0mm 499 W/m2
14:39 62.9 °F /  17.2 °C 54.8 °F /  12.7 °C 29.69in /  1005.3hPa SW 2.1mph /  3.4km/h 5mph /  8km/h 75% 0.00in /  0mm 552 W/m2
14:44 63.1 °F /  17.3 °C 54.9 °F /  12.7 °C 29.69in /  1005.3hPa SW 3.3mph /  5.3km/h 9mph /  14.5km/h 74.8% 0.00in /  0mm 396 W/m2
14:49 62.5 °F /  16.9 °C 54.2 °F /  12.3 °C 29.69in /  1005.3hPa SW 2.4mph /  3.9km/h 9mph /  14.5km/h 74.6% 0.00in /  0mm 149 W/m2
14:54 62.2 °F /  16.8 °C 54.1 °F /  12.3 °C 29.69in /  1005.3hPa WSW 3.9mph /  6.3km/h 8mph /  12.9km/h 75% 0.00in /  0mm 248 W/m2
14:59 61.9 °F /  16.6 °C 53.9 °F /  12.2 °C 29.69in /  1005.3hPa SW 4.5mph /  7.2km/h 8mph /  12.9km/h 75% 0.00in /  0mm 176 W/m2
15:04 61.7 °F /  16.5 °C 54 °F /  12.2 °C 29.69in /  1005.3hPa SSW 2.5mph /  4km/h 6mph /  9.7km/h 75.4% 0.00in /  0mm 162 W/m2
15:09 61.8 °F /  16.6 °C 54.2 °F /  12.3 °C 29.69in /  1005.3hPa SSW 2.4mph /  3.9km/h 5mph /  8km/h 76% 0.00in /  0mm 132 W/m2
15:13 61.8 °F /  16.6 °C 54.3 °F /  12.4 °C 29.69in /  1005.3hPa WSW 2.5mph /  4km/h 6mph /  9.7km/h 76.3% 0.00in /  0mm 160 W/m2
15:19 61.7 °F /  16.5 °C 54.4 °F /  12.4 °C 29.69in /  1005.3hPa SSW 2.8mph /  4.5km/h 7mph /  11.3km/h 76.8% 0.00in /  0mm 146 W/m2
15:24 61.3 °F /  16.3 °C 54 °F /  12.2 °C 29.69in /  1005.3hPa SSW 4.1mph /  6.6km/h 8mph /  12.9km/h 76.6% 0.00in /  0mm 111 W/m2
15:29 61.3 °F /  16.3 °C 54.1 °F /  12.3 °C 29.69in /  1005.3hPa SSW 1.9mph /  3.1km/h 7mph /  11.3km/h 77% 0.00in /  0mm 104 W/m2
15:34 61.4 °F /  16.3 °C 54.2 °F /  12.3 °C 29.69in /  1005.3hPa SSW 1.7mph /  2.7km/h 5mph /  8km/h 77% 0.00in /  0mm 149 W/m2
15:39 61.9 °F /  16.6 °C 54.8 °F /  12.7 °C 29.68in /  1005hPa SSW 1.5mph /  2.4km/h 4mph /  6.4km/h 77.4% 0.00in /  0mm 371 W/m2
15:44 62.9 °F /  17.2 °C 55.5 °F /  13.1 °C 29.67in /  1004.6hPa WSW 3.1mph /  5km/h 5mph /  8km/h 76.8% 0.00in /  0mm 380 W/m2
15:49 63.1 °F /  17.3 °C 55.1 °F /  12.8 °C 29.68in /  1005hPa SSW 5.9mph /  9.5km/h 9mph /  14.5km/h 75.4% 0.00in /  0mm 369 W/m2
15:54 62.3 °F /  16.8 °C 54.2 °F /  12.3 °C 29.68in /  1005hPa SSW 4.9mph /  7.9km/h 9mph /  14.5km/h 75% 0.00in /  0mm 121 W/m2
15:59 61.7 °F /  16.5 °C 54.2 °F /  12.3 °C 29.68in /  1005hPa SSW 6.2mph /  10km/h 10mph /  16.1km/h 76.2% 0.00in /  0mm 81 W/m2
16:04 61.4 °F /  16.3 °C 54.2 °F /  12.3 °C 29.68in /  1005hPa South 3.2mph /  5.1km/h 7mph /  11.3km/h 77.2% 0.00in /  0mm 72 W/m2
16:09 61 °F /  16.1 °C 54.1 °F /  12.3 °C 29.67in /  1004.6hPa SSE 2.2mph /  3.5km/h 7mph /  11.3km/h 78% 0.00in /  0mm 93 W/m2
16:14 61.2 °F /  16.2 °C 54.7 °F /  12.6 °C 29.68in /  1005hPa South 4.5mph /  7.2km/h 7mph /  11.3km/h 78.8% 0.00in /  0mm 278 W/m2
16:19 61.7 °F /  16.5 °C 55.1 °F /  12.8 °C 29.68in /  1005hPa South 2.5mph /  4km/h 6mph /  9.7km/h 79% 0.00in /  0mm 278 W/m2
16:24 62.4 °F /  16.9 °C 55.5 °F /  13.1 °C 29.68in /  1005hPa SSW 5mph /  8km/h 9mph /  14.5km/h 78.2% 0.00in /  0mm 255 W/m2
16:29 62.4 °F /  16.9 °C 55 °F /  12.8 °C 29.68in /  1005hPa SSW 2.8mph /  4.5km/h 7mph /  11.3km/h 77% 0.00in /  0mm 200 W/m2
16:34 62.5 °F /  16.9 °C 55.1 °F /  12.8 °C 29.68in /  1005hPa SSW 2.1mph /  3.4km/h 6mph /  9.7km/h 77% 0.00in /  0mm 153 W/m2
16:39 62.5 °F /  16.9 °C 55.1 °F /  12.8 °C 29.68in /  1005hPa SSW 3.9mph /  6.3km/h 8mph /  12.9km/h 77% 0.00in /  0mm 135 W/m2
16:44 62.4 °F /  16.9 °C 55 °F /  12.8 °C 29.68in /  1005hPa South 3.9mph /  6.3km/h 9mph /  14.5km/h 77% 0.00in /  0mm 123 W/m2
16:49 62.2 °F /  16.8 °C 55 °F /  12.8 °C 29.68in /  1005hPa SW 2.9mph /  4.7km/h 6mph /  9.7km/h 77.2% 0.00in /  0mm 113 W/m2
16:54 62.2 °F /  16.8 °C 55 °F /  12.8 °C 29.67in /  1004.6hPa SSE 2.3mph /  3.7km/h 6mph /  9.7km/h 77.4% 0.00in /  0mm 100 W/m2
16:59 62 °F /  16.7 °C 54.9 °F /  12.7 °C 29.68in /  1005hPa South 2.9mph /  4.7km/h 7mph /  11.3km/h 78% 0.00in /  0mm 84 W/m2
17:04 62.1 °F /  16.7 °C 55 °F /  12.8 °C 29.68in /  1005hPa South 3.3mph /  5.3km/h 7mph /  11.3km/h 78% 0.00in /  0mm 74 W/m2
17:09 61.7 °F /  16.5 °C 54.9 °F /  12.7 °C 29.67in /  1004.6hPa SSE 2.5mph /  4km/h 7mph /  11.3km/h 78.2% 0.00in /  0mm 65 W/m2
17:14 61.5 °F /  16.4 °C 54.9 °F /  12.7 °C 29.68in /  1005hPa SSE 2.5mph /  4km/h 5mph /  8km/h 79% 0.00in /  0mm 54 W/m2
17:19 61.4 °F /  16.3 °C 54.9 °F /  12.7 °C 29.67in /  1004.6hPa SSE 1.7mph /  2.7km/h 4mph /  6.4km/h 79% 0.00in /  0mm 46 W/m2
17:24 61.3 °F /  16.3 °C 54.9 °F /  12.7 °C 29.67in /  1004.6hPa SSE 0.5mph /  0.8km/h 3mph /  4.8km/h 79% 0.00in /  0mm 35 W/m2
17:29 61.3 °F /  16.3 °C 55.1 °F /  12.8 °C 29.67in /  1004.6hPa SSE 1.5mph /  2.4km/h 4mph /  6.4km/h 80% 0.00in /  0mm 30 W/m2
17:34 61.3 °F /  16.3 °C 55 °F /  12.8 °C 29.67in /  1004.6hPa SSE 0.5mph /  0.8km/h 3mph /  4.8km/h 80% 0.00in /  0mm 26 W/m2
17:39 61.3 °F /  16.3 °C 55 °F /  12.8 °C 29.67in /  1004.6hPa SSE 0.9mph /  1.4km/h 3mph /  4.8km/h 80% 0.00in /  0mm 21 W/m2
17:44 61.2 °F /  16.2 °C 54.9 °F /  12.7 °C 29.67in /  1004.6hPa Calm   3mph /  4.8km/h 80% 0.00in /  0mm 18 W/m2
17:49 61.2 °F /  16.2 °C 54.9 °F /  12.7 °C 29.67in /  1004.6hPa SSE 1.5mph /  2.4km/h 4mph /  6.4km/h 80% 0.00in /  0mm 14 W/m2
17:54 60.8 °F /  16 °C 54.6 °F /  12.6 °C 29.67in /  1004.6hPa SSE 1.6mph /  2.6km/h 6mph /  9.7km/h 80% 0.00in /  0mm 11 W/m2
17:59 60.4 °F /  15.8 °C 54.5 °F /  12.5 °C 29.67in /  1004.6hPa South 1.2mph /  1.9km/h 3mph /  4.8km/h 81% 0.00in /  0mm 7 W/m2
18:04 60.3 °F /  15.7 °C 54.3 °F /  12.4 °C 29.67in /  1004.6hPa South 0.9mph /  1.4km/h 3mph /  4.8km/h 81% 0.00in /  0mm 5 W/m2
18:09 60.1 °F /  15.6 °C 54.3 °F /  12.4 °C 29.67in /  1004.6hPa South 2mph /  3.2km/h 4mph /  6.4km/h 81% 0.00in /  0mm 0 W/m2
18:14 59.7 °F /  15.4 °C 54 °F /  12.2 °C 29.67in /  1004.6hPa SSW 1.6mph /  2.6km/h 6mph /  9.7km/h 81.4% 0.00in /  0mm 0 W/m2
18:19 59.5 °F /  15.3 °C 53.9 °F /  12.2 °C 29.67in /  1004.6hPa Calm   3mph /  4.8km/h 82% 0.00in /  0mm 0 W/m2
18:24 59.3 °F /  15.2 °C 53.7 °F /  12.1 °C 29.67in /  1004.6hPa SSW 0.6mph /  1km/h 4mph /  6.4km/h 82% 0.00in /  0mm 0 W/m2
18:29 59 °F /  15 °C 53.5 °F /  11.9 °C 29.67in /  1004.6hPa South 1.7mph /  2.7km/h 4mph /  6.4km/h 82% 0.00in /  0mm 0 W/m2
18:34 58.8 °F /  14.9 °C 53.4 °F /  11.9 °C 29.67in /  1004.6hPa Calm   2mph /  3.2km/h 82.2% 0.00in /  0mm 0 W/m2
18:39 58.6 °F /  14.8 °C 53.3 °F /  11.8 °C 29.67in /  1004.6hPa South 0.4mph /  0.6km/h 2mph /  3.2km/h 82.6% 0.00in /  0mm 0 W/m2
18:44 58.6 °F /  14.8 °C 53.4 °F /  11.9 °C 29.67in /  1004.6hPa South 1.8mph /  2.9km/h 3mph /  4.8km/h 83% 0.00in /  0mm 0 W/m2
18:49 58.5 °F /  14.7 °C 53.2 °F /  11.8 °C 29.67in /  1004.6hPa South 1.8mph /  2.9km/h 3mph /  4.8km/h 83.2% 0.00in /  0mm 0 W/m2
18:54 58.1 °F /  14.5 °C 53.3 °F /  11.8 °C 29.67in /  1004.6hPa South 1.6mph /  2.6km/h 3mph /  4.8km/h 84% 0.00in /  0mm 0 W/m2
18:59 57.8 °F /  14.3 °C 53 °F /  11.7 °C 29.67in /  1004.6hPa South 0.8mph /  1.3km/h 3mph /  4.8km/h 84% 0.00in /  0mm 0 W/m2
19:04 57.7 °F /  14.3 °C 53.1 °F /  11.7 °C 29.67in /  1004.6hPa South 1.6mph /  2.6km/h 3mph /  4.8km/h 84.8% 0.00in /  0mm 0 W/m2
19:09 57.6 °F /  14.2 °C 53.1 °F /  11.7 °C 29.67in /  1004.6hPa East 2.4mph /  3.9km/h 7mph /  11.3km/h 85% 0.00in /  0mm 0 W/m2
19:14 57.7 °F /  14.3 °C 53.4 °F /  11.9 °C 29.67in /  1004.6hPa ENE 2.2mph /  3.5km/h 7mph /  11.3km/h 85.5% 0.00in /  0mm 0 W/m2
19:19 57.9 °F /  14.4 °C 53.8 °F /  12.1 °C 29.67in /  1004.6hPa ENE 1.1mph /  1.8km/h 3mph /  4.8km/h 86% 0.00in /  0mm 0 W/m2
19:24 58.1 °F /  14.5 °C 54 °F /  12.2 °C 29.66in /  1004.3hPa ENE 0.5mph /  0.8km/h 4mph /  6.4km/h 86% 0.00in /  0mm 0 W/m2
19:29 58.5 °F /  14.7 °C 54.3 °F /  12.4 °C 29.66in /  1004.3hPa ENE 0.6mph /  1km/h 3mph /  4.8km/h 86% 0.00in /  0mm 0 W/m2
19:34 58.7 °F /  14.8 °C 54.6 °F /  12.6 °C 29.67in /  1004.6hPa ENE 1.2mph /  1.9km/h 3mph /  4.8km/h 86% 0.00in /  0mm 0 W/m2
19:39 58.6 °F /  14.8 °C 54.3 °F /  12.4 °C 29.67in /  1004.6hPa ENE 0.6mph /  1km/h 3mph /  4.8km/h 85.6% 0.00in /  0mm 0 W/m2
19:44 58.5 °F /  14.7 °C 54 °F /  12.2 °C 29.66in /  1004.3hPa ENE 1.2mph /  1.9km/h 4mph /  6.4km/h 85% 0.00in /  0mm 0 W/m2
19:49 58 °F /  14.4 °C 53.5 °F /  11.9 °C 29.66in /  1004.3hPa ENE 1.2mph /  1.9km/h 4mph /  6.4km/h 85% 0.00in /  0mm 0 W/m2
19:54 57.5 °F /  14.2 °C 53.1 °F /  11.7 °C 29.66in /  1004.3hPa ENE 2mph /  3.2km/h 4mph /  6.4km/h 85.2% 0.00in /  0mm 0 W/m2
19:59 57.9 °F /  14.4 °C 53.8 °F /  12.1 °C 29.66in /  1004.3hPa ENE 1.4mph /  2.3km/h 3mph /  4.8km/h 86% 0.00in /  0mm 0 W/m2
20:04 57.8 °F /  14.3 °C 53.7 °F /  12.1 °C 29.66in /  1004.3hPa ENE 0.9mph /  1.4km/h 2mph /  3.2km/h 86% 0.00in /  0mm 0 W/m2
20:09 57.7 °F /  14.3 °C 53.6 °F /  12 °C 29.66in /  1004.3hPa ENE 0.9mph /  1.4km/h 2mph /  3.2km/h 86% 0.00in /  0mm 0 W/m2
20:14 57.7 °F /  14.3 °C 53.6 °F /  12 °C 29.66in /  1004.3hPa ENE 2.2mph /  3.5km/h 3mph /  4.8km/h 86% 0.00in /  0mm 0 W/m2
20:19 57.6 °F /  14.2 °C 53.5 °F /  11.9 °C 29.66in /  1004.3hPa ENE 1.4mph /  2.3km/h 3mph /  4.8km/h 86% 0.00in /  0mm 0 W/m2
20:24 57.4 °F /  14.1 °C 53.2 °F /  11.8 °C 29.66in /  1004.3hPa ENE 1.8mph /  2.9km/h 3mph /  4.8km/h 86% 0.00in /  0mm 0 W/m2
20:29 56.7 °F /  13.7 °C 52.5 °F /  11.4 °C 29.66in /  1004.3hPa ENE 1.7mph /  2.7km/h 5mph /  8km/h 86% 0.00in /  0mm 0 W/m2
20:34 56.1 °F /  13.4 °C 52 °F /  11.1 °C 29.66in /  1004.3hPa NE 0.7mph /  1.1km/h 3mph /  4.8km/h 86% 0.00in /  0mm 0 W/m2
20:39 56.4 °F /  13.6 °C 52.6 °F /  11.4 °C 29.67in /  1004.6hPa NE 0.6mph /  1km/h 3mph /  4.8km/h 87% 0.00in /  0mm 0 W/m2
20:44 56.6 °F /  13.7 °C 52.8 °F /  11.6 °C 29.67in /  1004.6hPa NE 0.2mph /  0.3km/h 2mph /  3.2km/h 87% 0.00in /  0mm 0 W/m2
20:49 56.8 °F /  13.8 °C 53.1 °F /  11.7 °C 29.67in /  1004.6hPa NE 1.2mph /  1.9km/h 2mph /  3.2km/h 87% 0.00in /  0mm 0 W/m2
20:54 56.7 °F /  13.7 °C 52.9 °F /  11.6 °C 29.67in /  1004.6hPa NE 2.2mph /  3.5km/h 4mph /  6.4km/h 87% 0.00in /  0mm 0 W/m2
20:59 56.3 °F /  13.5 °C 52.5 °F /  11.4 °C 29.66in /  1004.3hPa NE 1.2mph /  1.9km/h 4mph /  6.4km/h 87% 0.00in /  0mm 0 W/m2
21:04 56.4 °F /  13.6 °C 52.6 °F /  11.4 °C 29.66in /  1004.3hPa NE 1.6mph /  2.6km/h 3mph /  4.8km/h 87% 0.00in /  0mm 0 W/m2
21:09 56.5 °F /  13.6 °C 52.7 °F /  11.5 °C 29.66in /  1004.3hPa NE 1.8mph /  2.9km/h 3mph /  4.8km/h 87% 0.00in /  0mm 0 W/m2
21:14 56.6 °F /  13.7 °C 52.8 °F /  11.6 °C 29.66in /  1004.3hPa NE 1.2mph /  1.9km/h 3mph /  4.8km/h 87% 0.00in /  0mm 0 W/m2
21:19 56.6 °F /  13.7 °C 52.8 °F /  11.6 °C 29.65in /  1003.9hPa NE 1.7mph /  2.7km/h 3mph /  4.8km/h 87% 0.00in /  0mm 0 W/m2
21:24 56.7 °F /  13.7 °C 52.9 °F /  11.6 °C 29.65in /  1003.9hPa NE 1.2mph /  1.9km/h 3mph /  4.8km/h 87% 0.00in /  0mm 0 W/m2
21:29 56.7 °F /  13.7 °C 52.9 °F /  11.6 °C 29.65in /  1003.9hPa NE 1.6mph /  2.6km/h 3mph /  4.8km/h 87.2% 0.00in /  0mm 0 W/m2
21:34 56.4 °F /  13.6 °C 52.6 °F /  11.4 °C 29.65in /  1003.9hPa ENE 0.8mph /  1.3km/h 5mph /  8km/h 87% 0.00in /  0mm 0 W/m2
21:39 56.1 °F /  13.4 °C 52.3 °F /  11.3 °C 29.65in /  1003.9hPa NE 1.5mph /  2.4km/h 5mph /  8km/h 87% 0.00in /  0mm 0 W/m2
21:44 56.1 °F /  13.4 °C 52.3 °F /  11.3 °C 29.65in /  1003.9hPa ENE 1.3mph /  2.1km/h 5mph /  8km/h 87% 0.00in /  0mm 0 W/m2
21:49 55.9 °F /  13.3 °C 52.1 °F /  11.2 °C 29.65in /  1003.9hPa ENE 1.3mph /  2.1km/h 6mph /  9.7km/h 87% 0.00in /  0mm 0 W/m2
21:54 55.3 °F /  12.9 °C 51.5 °F /  10.8 °C 29.65in /  1003.9hPa ENE 0.8mph /  1.3km/h 3mph /  4.8km/h 87% 0.00in /  0mm 0 W/m2
21:59 54.9 °F /  12.7 °C 51.2 °F /  10.7 °C 29.65in /  1003.9hPa East 1.7mph /  2.7km/h 5mph /  8km/h 87% 0.00in /  0mm 0 W/m2
22:04 54.5 °F /  12.5 °C 50.7 °F /  10.4 °C 29.65in /  1003.9hPa ESE 2.1mph /  3.4km/h 5mph /  8km/h 87% 0.00in /  0mm 0 W/m2
22:09 54.2 °F /  12.3 °C 50.5 °F /  10.3 °C 29.65in /  1003.9hPa East 1.9mph /  3.1km/h 7mph /  11.3km/h 87% 0.00in /  0mm 0 W/m2
22:14 54 °F /  12.2 °C 50.5 °F /  10.3 °C 29.64in /  1003.6hPa ENE 1.7mph /  2.7km/h 5mph /  8km/h 87.8% 0.00in /  0mm 0 W/m2
22:19 53.8 °F /  12.1 °C 50.4 °F /  10.2 °C 29.64in /  1003.6hPa East 2mph /  3.2km/h 6mph /  9.7km/h 88% 0.00in /  0mm 0 W/m2
22:24 53.8 °F /  12.1 °C 50.4 °F /  10.2 °C 29.64in /  1003.6hPa ENE 1.7mph /  2.7km/h 6mph /  9.7km/h 88% 0.00in /  0mm 0 W/m2
22:29 53.8 °F /  12.1 °C 50.4 °F /  10.2 °C 29.65in /  1003.9hPa ENE 1.6mph /  2.6km/h 5mph /  8km/h 88.2% 0.00in /  0mm 0 W/m2
22:34 53.6 °F /  12 °C 50.4 °F /  10.2 °C 29.64in /  1003.6hPa East 2.3mph /  3.7km/h 4mph /  6.4km/h 89% 0.00in /  0mm 0 W/m2
22:39 53.6 °F /  12 °C 50.4 °F /  10.2 °C 29.64in /  1003.6hPa East 2.4mph /  3.9km/h 5mph /  8km/h 89% 0.00in /  0mm 0 W/m2
22:44 53.4 °F /  11.9 °C 50.2 °F /  10.1 °C 29.64in /  1003.6hPa East 1.5mph /  2.4km/h 4mph /  6.4km/h 89% 0.00in /  0mm 0 W/m2
22:49 53.4 °F /  11.9 °C 50.2 °F /  10.1 °C 29.64in /  1003.6hPa ESE 2mph /  3.2km/h 5mph /  8km/h 89% 0.00in /  0mm 0 W/m2
22:54 53.4 °F /  11.9 °C 50.3 °F /  10.2 °C 29.64in /  1003.6hPa ESE 1mph /  1.6km/h 5mph /  8km/h 89.4% 0.00in /  0mm 0 W/m2
22:59 53.2 °F /  11.8 °C 50.2 °F /  10.1 °C 29.64in /  1003.6hPa East 0.4mph /  0.6km/h 3mph /  4.8km/h 89.4% 0.00in /  0mm 0 W/m2
23:04 53.2 °F /  11.8 °C 50.4 °F /  10.2 °C 29.63in /  1003.3hPa East 1.2mph /  1.9km/h 3mph /  4.8km/h 90% 0.00in /  0mm 0 W/m2
23:09 53.2 °F /  11.8 °C 50.4 °F /  10.2 °C 29.63in /  1003.3hPa East 1.2mph /  1.9km/h 3mph /  4.8km/h 90% 0.00in /  0mm 0 W/m2
23:14 53.1 °F /  11.7 °C 50.3 °F /  10.2 °C 29.63in /  1003.3hPa Calm   3mph /  4.8km/h 90% 0.00in /  0mm 0 W/m2
23:19 53.1 °F /  11.7 °C 50.2 °F /  10.1 °C 29.63in /  1003.3hPa Calm     90% 0.00in /  0mm 0 W/m2
23:24 53.1 °F /  11.7 °C 50.2 °F /  10.1 °C 29.63in /  1003.3hPa ESE 0.4mph /  0.6km/h 4mph /  6.4km/h 90% 0.00in /  0mm 0 W/m2
23:29 53.1 °F /  11.7 °C 50.2 °F /  10.1 °C 29.63in /  1003.3hPa East 2mph /  3.2km/h 7mph /  11.3km/h 90% 0.00in /  0mm 0 W/m2
23:34 53 °F /  11.7 °C 50.1 °F /  10.1 °C 29.63in /  1003.3hPa ESE 0.8mph /  1.3km/h 3mph /  4.8km/h 90% 0.00in /  0mm 0 W/m2
23:39 52.9 °F /  11.6 °C 50 °F /  10 °C 29.63in /  1003.3hPa East 1.2mph /  1.9km/h 4mph /  6.4km/h 90% 0.00in /  0mm 0 W/m2
23:44 52.9 °F /  11.6 °C 50 °F /  10 °C 29.63in /  1003.3hPa ESE 1.4mph /  2.3km/h 4mph /  6.4km/h 90% 0.00in /  0mm 0 W/m2
23:49 52.7 °F /  11.5 °C 49.8 °F /  9.9 °C 29.62in /  1002.9hPa East 0.6mph /  1km/h 5mph /  8km/h 90% 0.00in /  0mm 0 W/m2
23:54 52.8 °F /  11.6 °C 49.9 °F /  9.9 °C 29.62in /  1002.9hPa ESE 2mph /  3.2km/h 5mph /  8km/h 90% 0.00in /  0mm 0 W/m2
23:59 52.9 °F /  11.6 °C 50.3 °F /  10.2 °C 29.62in /  1002.9hPa ESE 3.3mph /  5.3km/h 7mph /  11.3km/h 90.8% 0.00in /  0mm 0 W/m2
Bath Spa Weather
Compliments of Weather Underground - 2 mb